Time;durP1;ratioP1;P1;durP2;ratioP2;P2;SDS_P1;SDS_P2;PMS_P1;PMS_P2;Temp;Humidity;BMP_temperature;BMP_pressure;BME280_temperature;BME280_humidity;BME280_pressure;Samples;Min_cycle;Max_cycle;Signal;HPM_P1;HPM_P2
2023/09/24 00:00:59;;;;;;;1389.40;981.95;;;11.60;99.90;;;;;;4889068;29;20051;-81
2023/09/24 00:03:25;;;;;;;1382.43;980.92;;;11.70;99.90;;;;;;4890632;29;20056;-81
2023/09/24 00:05:52;;;;;;;1296.35;964.10;;;11.70;99.90;;;;;;4859701;29;20052;-81
2023/09/24 00:08:18;;;;;;;1425.13;991.42;;;11.70;99.90;;;;;;4884644;29;20057;-80
2023/09/24 00:10:52;;;;;;;1428.00;996.90;;;11.70;99.90;;;;;;4889570;29;20397;-81
2023/09/24 00:13:19;;;;;;;1232.10;953.25;;;11.70;99.90;;;;;;4874855;29;20079;-81
2023/09/24 00:15:45;;;;;;;1183.80;931.92;;;11.80;99.90;;;;;;4889690;29;20056;-81
2023/09/24 00:18:11;;;;;;;1201.72;942.60;;;11.80;99.90;;;;;;4874193;29;20049;-80
2023/09/24 00:20:36;;;;;;;1234.32;963.08;;;11.80;99.90;;;;;;4891529;29;20049;-81
2023/09/24 00:23:03;;;;;;;1159.35;944.10;;;11.80;99.90;;;;;;4891634;29;20443;-81
2023/09/24 00:25:28;;;;;;;1143.68;943.20;;;11.80;99.90;;;;;;4889377;29;20088;-81
2023/09/24 00:27:56;;;;;;;1138.70;936.20;;;11.80;99.90;;;;;;4890228;29;20085;-80
2023/09/24 00:30:22;;;;;;;1071.03;908.97;;;11.70;99.90;;;;;;4882554;29;20080;-80
2023/09/24 00:32:48;;;;;;;1141.50;941.65;;;11.70;99.90;;;;;;4886304;29;20052;-80
2023/09/24 00:35:15;;;;;;;1171.68;942.78;;;11.70;99.90;;;;;;4871351;29;20052;-81
2023/09/24 00:37:41;;;;;;;1076.18;912.83;;;11.60;99.90;;;;;;4873848;29;20536;-80
2023/09/24 00:40:10;;;;;;;1160.45;932.88;;;11.60;99.90;;;;;;4891117;29;20087;-80
2023/09/24 00:42:37;;;;;;;1087.03;914.13;;;11.60;99.90;;;;;;4890759;29;20405;-80
2023/09/24 00:45:09;;;;;;;1140.43;939.55;;;11.50;99.90;;;;;;4885089;29;20064;-80
2023/09/24 00:47:37;;;;;;;1143.97;921.75;;;11.40;99.90;;;;;;4889672;29;20048;-80
2023/09/24 00:50:07;;;;;;;1057.13;904.55;;;11.30;99.90;;;;;;4891745;29;20087;-80
2023/09/24 00:52:34;;;;;;;1183.55;943.53;;;11.20;99.90;;;;;;4888772;29;20057;-80
2023/09/24 00:55:00;;;;;;;1058.65;903.35;;;11.10;99.90;;;;;;4874708;29;20087;-81
2023/09/24 00:57:26;;;;;;;1180.78;944.13;;;11.00;99.90;;;;;;4889358;29;20532;-81
2023/09/24 00:59:52;;;;;;;1222.68;950.28;;;11.00;99.90;;;;;;4872590;29;20056;-80
2023/09/24 01:02:19;;;;;;;1205.57;944.88;;;10.90;99.90;;;;;;4889580;29;20063;-80
2023/09/24 01:04:45;;;;;;;1244.65;967.05;;;10.90;99.90;;;;;;4873866;29;20135;-80
2023/09/24 01:07:11;;;;;;;1128.38;927.67;;;10.70;99.90;;;;;;4892226;29;20079;-81
2023/09/24 01:09:36;;;;;;;1147.82;934.05;;;10.70;99.90;;;;;;4877205;29;20084;-81
2023/09/24 01:12:03;;;;;;;1294.00;974.03;;;10.70;99.90;;;;;;4893010;29;20071;-81
2023/09/24 01:14:29;;;;;;;1123.95;923.75;;;10.60;99.90;;;;;;4875991;29;20603;-81
2023/09/24 01:16:55;;;;;;;1293.00;976.00;;;10.50;99.90;;;;;;4877204;29;20421;-80
2023/09/24 01:19:23;;;;;;;1104.82;915.80;;;10.50;99.90;;;;;;4877730;29;20055;-81
2023/09/24 01:21:50;;;;;;;1343.93;966.85;;;10.50;99.90;;;;;;4893189;29;20167;-81
2023/09/24 01:24:16;;;;;;;1185.43;950.45;;;10.50;99.90;;;;;;4893443;29;20056;-80
2023/09/24 01:26:44;;;;;;;1130.00;934.60;;;10.40;99.90;;;;;;4892102;29;20048;-81
2023/09/24 01:29:11;;;;;;;1290.55;976.58;;;10.40;99.90;;;;;;4892772;29;20064;-80
2023/09/24 01:31:38;;;;;;;1414.40;995.13;;;10.40;99.90;;;;;;4891609;29;20530;-81
2023/09/24 01:34:05;;;;;;;1386.63;984.65;;;10.40;99.90;;;;;;4894781;29;20048;-81
2023/09/24 01:36:32;;;;;;;1412.88;994.85;;;10.40;99.90;;;;;;4892165;29;20559;-80
2023/09/24 01:38:58;;;;;;;1492.57;999.90;;;10.50;99.90;;;;;;4892810;29;20064;-81
2023/09/24 01:41:25;;;;;;;1442.88;996.50;;;10.50;99.90;;;;;;4891932;29;20040;-81
2023/09/24 01:43:52;;;;;;;1527.22;999.90;;;10.50;99.90;;;;;;4889059;29;20595;-80
2023/09/24 01:46:20;;;;;;;1443.85;999.90;;;10.50;99.90;;;;;;4891776;29;20040;-81
2023/09/24 01:48:50;;;;;;;1376.57;998.60;;;10.40;99.90;;;;;;4875787;29;20049;-81
2023/09/24 01:51:15;;;;;;;1355.18;994.42;;;10.30;99.90;;;;;;4893858;29;20185;-81
2023/09/24 01:53:42;;;;;;;1566.53;999.90;;;10.30;99.90;;;;;;4891711;29;20513;-81
2023/09/24 01:56:08;;;;;;;1442.63;998.47;;;10.30;99.90;;;;;;4892834;29;20109;-81
2023/09/24 01:58:37;;;;;;;1399.93;998.63;;;10.40;99.90;;;;;;4886673;29;20390;-81
2023/09/24 02:01:03;;;;;;;1194.60;948.45;;;10.30;99.90;;;;;;4891970;29;20186;-81
2023/09/24 02:03:29;;;;;;;1177.22;957.63;;;10.30;99.90;;;;;;4892717;29;20544;-81
2023/09/24 02:05:55;;;;;;;1223.10;958.58;;;10.30;99.90;;;;;;4893011;29;20461;-81
2023/09/24 02:08:21;;;;;;;1256.65;967.65;;;10.20;99.90;;;;;;4892448;29;20052;-81
2023/09/24 02:10:47;;;;;;;1396.53;999.90;;;10.20;99.90;;;;;;4890789;29;20064;-81
2023/09/24 02:13:14;;;;;;;1212.18;954.13;;;10.20;99.90;;;;;;4875350;29;20140;-81
2023/09/24 02:15:43;;;;;;;1238.38;968.90;;;10.10;99.90;;;;;;4891179;29;20075;-81
2023/09/24 02:18:09;;;;;;;1237.80;969.00;;;10.10;99.90;;;;;;4875291;29;20040;-80
2023/09/24 02:20:35;;;;;;;1353.85;997.45;;;10.00;99.90;;;;;;4892182;29;20124;-81
2023/09/24 02:23:04;;;;;;;1382.88;996.85;;;10.00;99.90;;;;;;4893075;29;20124;-81
2023/09/24 02:25:35;;;;;;;1254.85;972.95;;;10.00;99.90;;;;;;4893341;29;20040;-80
2023/09/24 02:28:02;;;;;;;1345.75;985.28;;;10.00;99.90;;;;;;4893469;29;20045;-81
2023/09/24 02:30:29;;;;;;;1396.05;996.25;;;10.00;99.90;;;;;;4875998;29;20051;-81
2023/09/24 02:32:57;;;;;;;1294.38;980.45;;;10.00;99.90;;;;;;4892374;29;21036;-81
2023/09/24 02:35:23;;;;;;;1340.55;994.78;;;9.90;99.90;;;;;;4876315;29;20040;-80
2023/09/24 02:37:51;;;;;;;1289.45;969.35;;;9.90;99.90;;;;;;4891621;29;20076;-81
2023/09/24 02:40:27;;;;;;;1422.80;999.90;;;9.90;99.90;;;;;;4876237;29;20435;-81
2023/09/24 02:42:57;;;;;;;1242.15;961.80;;;9.90;99.90;;;;;;4875578;29;20497;-81
2023/09/24 02:45:24;;;;;;;1409.45;999.90;;;9.70;99.90;;;;;;4886411;29;20469;-81
2023/09/24 02:47:50;;;;;;;1360.38;996.97;;;10.00;99.90;;;;;;4891537;29;20123;-80
2023/09/24 02:50:22;;;;;;;1239.57;960.72;;;9.70;99.90;;;;;;4891538;29;20091;-80
2023/09/24 02:52:49;;;;;;;1455.63;999.90;;;9.70;99.90;;;;;;4890413;29;20056;-81
2023/09/24 02:55:15;;;;;;;1362.90;992.13;;;9.70;99.90;;;;;;4892849;29;20135;-81
2023/09/24 02:57:42;;;;;;;1400.00;996.90;;;9.70;99.90;;;;;;4890832;29;20052;-82
2023/09/24 03:00:15;;;;;;;1341.22;997.85;;;9.70;99.90;;;;;;4891756;29;20045;-81
2023/09/24 03:02:40;;;;;;;1373.20;998.38;;;9.70;99.90;;;;;;4888006;29;20591;-81
2023/09/24 03:05:26;;;;;;;1292.35;983.85;;;9.60;99.90;;;;;;4886162;29;20056;-81
2023/09/24 03:07:53;;;;;;;1488.43;999.90;;;9.60;99.90;;;;;;4890766;29;20052;-81
2023/09/24 03:10:19;;;;;;;1391.00;990.22;;;9.70;99.90;;;;;;4875554;29;20044;-81
2023/09/24 03:12:46;;;;;;;1306.32;985.78;;;9.70;99.90;;;;;;4890461;29;20135;-81
2023/09/24 03:15:13;;;;;;;1474.57;999.90;;;9.70;99.90;;;;;;4874502;29;20556;-81
2023/09/24 03:17:40;;;;;;;1390.30;991.20;;;9.70;99.90;;;;;;4875529;29;20519;-81
2023/09/24 03:20:15;;;;;;;1479.43;999.90;;;9.70;99.90;;;;;;4891333;29;20421;-80
2023/09/24 03:22:43;;;;;;;1390.70;980.80;;;9.60;99.90;;;;;;4891293;29;20127;-80
2023/09/24 03:25:11;;;;;;;1370.28;984.90;;;9.70;99.90;;;;;;4875065;29;20041;-81
2023/09/24 03:27:41;;;;;;;1562.10;999.90;;;9.70;99.90;;;;;;4890485;29;20049;-81
2023/09/24 03:30:13;;;;;;;1550.43;999.90;;;9.60;99.90;;;;;;4889193;29;20108;-80
2023/09/24 03:32:40;;;;;;;1419.57;995.75;;;9.70;99.90;;;;;;4890822;29;20147;-81
2023/09/24 03:35:09;;;;;;;1278.28;966.85;;;9.70;99.90;;;;;;4890369;29;20053;-80
2023/09/24 03:37:43;;;;;;;1535.82;999.90;;;9.70;99.90;;;;;;4875392;29;20049;-81
2023/09/24 03:40:28;;;;;;;1677.72;999.90;;;9.70;99.90;;;;;;4891084;29;20137;-81
2023/09/24 03:42:53;;;;;;;1905.40;999.90;;;9.80;99.90;;;;;;4874058;29;20565;-81
2023/09/24 03:45:23;;;;;;;1563.60;999.90;;;9.90;99.90;;;;;;4873988;29;20115;-81
2023/09/24 03:47:49;;;;;;;1546.88;999.90;;;10.00;99.90;;;;;;4874501;29;20135;-81
2023/09/24 03:50:17;;;;;;;1589.95;999.90;;;10.10;99.90;;;;;;4874566;29;20048;-82
2023/09/24 03:52:48;;;;;;;1466.53;999.90;;;10.10;99.90;;;;;;4890163;29;20041;-81
2023/09/24 03:55:15;;;;;;;1698.65;999.90;;;10.20;99.90;;;;;;4889246;29;20056;-81
2023/09/24 03:57:41;;;;;;;1510.22;999.90;;;10.30;99.90;;;;;;4889887;29;20375;-81
2023/09/24 04:00:11;;;;;;;1630.55;999.90;;;10.30;99.90;;;;;;4874384;29;20052;-81
2023/09/24 04:02:39;;;;;;;1724.20;999.90;;;10.40;99.90;;;;;;4877618;29;20063;-81
2023/09/24 04:05:08;;;;;;;1638.50;999.90;;;10.10;99.90;;;;;;4890783;29;20057;-81
2023/09/24 04:07:37;;;;;;;1609.15;999.90;;;10.10;99.90;;;;;;4875272;29;20044;-81
2023/09/24 04:10:04;;;;;;;1490.78;999.90;;;10.20;99.90;;;;;;4890629;29;20049;-81
2023/09/24 04:12:33;;;;;;;1670.00;999.90;;;10.20;99.90;;;;;;4890943;29;20056;-81
2023/09/24 04:15:00;;;;;;;1709.80;999.90;;;10.20;99.90;;;;;;4873854;29;20048;-80
2023/09/24 04:17:25;;;;;;;1493.93;999.90;;;10.20;99.90;;;;;;4874218;29;20048;-80
2023/09/24 04:19:52;;;;;;;1594.47;999.90;;;10.20;99.90;;;;;;4874079;29;20044;-81
2023/09/24 04:22:18;;;;;;;1683.78;999.90;;;10.20;99.90;;;;;;4889961;29;20055;-81
2023/09/24 04:24:43;;;;;;;1584.07;999.90;;;10.10;99.90;;;;;;4872348;29;20055;-81
2023/09/24 04:27:09;;;;;;;1552.32;999.90;;;10.10;99.90;;;;;;4890014;29;20060;-80
2023/09/24 04:29:35;;;;;;;1469.53;999.90;;;10.10;99.90;;;;;;4888221;29;20280;-81
2023/09/24 04:32:00;;;;;;;1486.35;999.90;;;10.10;99.90;;;;;;4860502;29;20149;-81
2023/09/24 04:34:26;;;;;;;1607.60;999.90;;;10.20;99.90;;;;;;4886480;29;20053;-81
2023/09/24 04:36:52;;;;;;;1461.55;999.50;;;10.10;99.90;;;;;;4889666;29;20049;-81
2023/09/24 04:39:19;;;;;;;1658.82;999.90;;;10.10;99.90;;;;;;4872337;29;20088;-80
2023/09/24 04:41:47;;;;;;;1657.72;999.90;;;10.10;99.90;;;;;;4873730;29;20057;-81
2023/09/24 04:44:13;;;;;;;1490.10;999.90;;;10.10;99.90;;;;;;4873708;29;20045;-81
2023/09/24 04:46:39;;;;;;;1652.38;999.90;;;10.10;99.90;;;;;;4876748;29;20048;-80
2023/09/24 04:49:05;;;;;;;1604.70;999.90;;;10.10;99.90;;;;;;4891806;29;20048;-81
2023/09/24 04:51:32;;;;;;;1615.80;999.90;;;10.10;99.90;;;;;;4889872;29;20395;-81
2023/09/24 04:53:59;;;;;;;1509.43;999.90;;;10.00;99.90;;;;;;4875444;29;20987;-81
2023/09/24 04:56:25;;;;;;;1681.47;999.90;;;10.00;99.90;;;;;;4875411;29;20147;-81
2023/09/24 04:58:51;;;;;;;1709.82;999.90;;;10.00;99.90;;;;;;4874262;29;20475;-81
2023/09/24 05:01:16;;;;;;;1718.88;999.90;;;10.00;99.90;;;;;;4874387;29;20056;-81
2023/09/24 05:03:42;;;;;;;1580.00;999.90;;;10.00;99.90;;;;;;4870094;29;20470;-81
2023/09/24 05:06:08;;;;;;;1740.53;999.90;;;10.00;99.90;;;;;;4878960;29;20044;-81
2023/09/24 05:08:36;;;;;;;1685.72;999.90;;;10.00;99.90;;;;;;4890812;29;20045;-81
2023/09/24 05:11:03;;;;;;;1866.10;999.90;;;10.00;99.90;;;;;;4875271;29;20086;-81
2023/09/24 05:13:30;;;;;;;1743.97;999.90;;;10.00;99.90;;;;;;4891475;29;20080;-81
2023/09/24 05:15:59;;;;;;;1729.03;999.90;;;10.00;99.90;;;;;;4889682;29;20052;-81
2023/09/24 05:18:26;;;;;;;1523.10;999.90;;;10.00;99.90;;;;;;4887433;29;20064;-81
2023/09/24 05:20:52;;;;;;;1884.55;999.90;;;10.00;99.90;;;;;;4873380;29;20104;-82
2023/09/24 05:23:18;;;;;;;1597.13;999.90;;;9.90;99.90;;;;;;4873609;29;20548;-81
2023/09/24 05:25:44;;;;;;;1825.80;999.90;;;9.90;99.90;;;;;;4889993;29;20135;-81
2023/09/24 05:28:10;;;;;;;1735.25;999.90;;;10.00;99.90;;;;;;4888184;29;20457;-81
2023/09/24 05:30:35;;;;;;;1422.03;999.90;;;9.90;99.90;;;;;;4874551;29;20458;-81
2023/09/24 05:33:03;;;;;;;1484.10;999.90;;;9.90;99.90;;;;;;4889774;29;20091;-81
2023/09/24 05:35:29;;;;;;;1712.20;999.90;;;10.00;99.90;;;;;;4891291;29;20620;-81
2023/09/24 05:37:54;;;;;;;1716.53;999.90;;;10.10;99.90;;;;;;4889253;29;20072;-81
2023/09/24 05:40:20;;;;;;;1639.72;999.90;;;10.00;99.90;;;;;;4890519;29;20493;-81
2023/09/24 05:42:47;;;;;;;1634.75;999.90;;;10.00;99.90;;;;;;4873967;29;20071;-81
2023/09/24 05:45:12;;;;;;;1752.93;999.90;;;10.00;99.90;;;;;;4867771;29;20584;-81
2023/09/24 05:47:38;;;;;;;1695.70;999.90;;;10.00;99.90;;;;;;4886931;29;20053;-81
2023/09/24 05:50:04;;;;;;;1791.25;999.90;;;10.00;99.90;;;;;;4886604;29;20052;-82
2023/09/24 05:52:30;;;;;;;1630.75;999.90;;;10.00;99.90;;;;;;4887695;29;20390;-81
2023/09/24 05:54:57;;;;;;;1695.70;999.90;;;10.00;99.90;;;;;;4873184;29;20088;-81
2023/09/24 05:57:26;;;;;;;1737.93;999.90;;;10.10;99.90;;;;;;4889968;29;20052;-81
2023/09/24 05:59:53;;;;;;;1539.22;999.90;;;10.10;99.90;;;;;;4890438;29;20117;-80
2023/09/24 06:02:22;;;;;;;1787.35;999.90;;;10.10;99.90;;;;;;4889031;29;20060;-81
2023/09/24 06:04:49;;;;;;;1647.78;999.90;;;10.10;99.90;;;;;;4874081;29;20052;-81
2023/09/24 06:07:14;;;;;;;1538.10;999.90;;;10.10;99.90;;;;;;4874570;29;20063;-81
2023/09/24 06:09:40;;;;;;;1681.25;999.90;;;10.10;99.90;;;;;;4873381;29;20952;-81
2023/09/24 06:12:07;;;;;;;1494.32;999.90;;;10.20;99.90;;;;;;4873962;29;20052;-81
2023/09/24 06:14:33;;;;;;;1782.00;999.90;;;10.20;99.90;;;;;;4886394;29;20061;-81
2023/09/24 06:16:59;;;;;;;1696.95;999.90;;;10.20;99.90;;;;;;4888864;29;20468;-81
2023/09/24 06:19:25;;;;;;;1519.70;999.90;;;10.20;99.90;;;;;;4890750;29;20091;-81
2023/09/24 06:21:51;;;;;;;1736.05;999.90;;;10.20;99.90;;;;;;4885373;29;20036;-81
2023/09/24 06:24:21;;;;;;;1680.68;999.90;;;10.30;99.90;;;;;;4885877;29;20052;-81
2023/09/24 06:26:46;;;;;;;1470.53;999.90;;;10.30;99.90;;;;;;4887279;29;20060;-81
2023/09/24 06:29:13;;;;;;;1639.60;999.90;;;10.30;99.90;;;;;;4889189;29;20052;-81
2023/09/24 06:31:39;;;;;;;1620.30;999.90;;;10.30;99.90;;;;;;4872089;29;20092;-81
2023/09/24 06:34:05;;;;;;;1646.95;999.90;;;10.40;99.90;;;;;;4874361;29;20480;-81
2023/09/24 06:36:31;;;;;;;1667.38;999.90;;;10.40;99.90;;;;;;4888939;29;20057;-81
2023/09/24 06:38:57;;;;;;;1587.30;999.90;;;10.40;99.90;;;;;;4888998;29;20049;-81
2023/09/24 06:41:23;;;;;;;1505.95;999.90;;;10.50;99.90;;;;;;4873270;29;20560;-81
2023/09/24 06:43:48;;;;;;;1595.68;999.90;;;10.50;99.90;;;;;;4887890;29;20053;-81
2023/09/24 06:46:14;;;;;;;1520.32;999.90;;;10.60;99.90;;;;;;4889145;29;20048;-81
2023/09/24 06:48:40;;;;;;;1790.35;999.90;;;10.60;99.90;;;;;;4890057;29;20117;-81
2023/09/24 06:51:09;;;;;;;1649.38;999.90;;;10.70;99.90;;;;;;4882263;29;20133;-81
2023/09/24 06:53:39;;;;;;;1394.40;996.25;;;10.80;99.90;;;;;;4900718;29;20104;-81
2023/09/24 06:56:08;;;;;;;1367.30;988.60;;;10.80;99.90;;;;;;4873959;29;20112;-81
2023/09/24 06:58:35;;;;;;;1533.25;999.90;;;10.90;99.90;;;;;;4888521;29;20215;-81
2023/09/24 07:01:03;;;;;;;1354.28;992.67;;;11.00;99.90;;;;;;4888606;29;20416;-81
2023/09/24 07:03:29;;;;;;;1489.72;999.90;;;11.10;99.90;;;;;;4891077;29;20127;-80
2023/09/24 07:05:55;;;;;;;1458.03;996.75;;;11.20;99.90;;;;;;4890919;29;20064;-81
2023/09/24 07:08:20;;;;;;;1239.78;961.00;;;11.20;99.90;;;;;;4891119;29;20233;-80
2023/09/24 07:11:28;;;;;;;1196.55;952.45;;;11.40;99.90;;;;;;4891303;29;20057;-81
2023/09/24 07:13:54;;;;;;;1164.07;949.08;;;11.40;99.90;;;;;;4891644;29;20048;-81
2023/09/24 07:16:24;;;;;;;1162.03;943.95;;;11.50;99.90;;;;;;4892558;29;20063;-81
2023/09/24 07:18:51;;;;;;;1092.28;924.25;;;11.60;99.90;;;;;;4878385;29;20057;-80
2023/09/24 07:21:21;;;;;;;1097.03;921.78;;;11.70;99.90;;;;;;4886298;29;20060;-80
2023/09/24 07:23:49;;;;;;;1069.93;914.28;;;11.80;99.90;;;;;;4888848;29;20050;-81
2023/09/24 07:26:14;;;;;;;1021.40;891.08;;;11.90;99.90;;;;;;4890770;29;20088;-80
2023/09/24 07:28:41;;;;;;;1001.30;891.47;;;12.00;99.90;;;;;;4875212;29;20139;-80
2023/09/24 07:31:21;;;;;;;1019.72;893.38;;;12.00;99.90;;;;;;4890635;29;20048;-81
2023/09/24 07:33:51;;;;;;;1050.65;904.75;;;12.10;99.90;;;;;;4889335;29;20044;-80
2023/09/24 07:36:18;;;;;;;1067.60;907.60;;;12.20;99.90;;;;;;4883557;29;20516;-80
2023/09/24 07:38:44;;;;;;;1060.47;896.05;;;12.30;99.90;;;;;;4883680;29;20524;-81
2023/09/24 07:41:10;;;;;;;1358.32;876.83;;;12.40;99.90;;;;;;4868724;29;20049;-80
2023/09/24 07:43:41;;;;;;;976.42;870.85;;;12.40;99.90;;;;;;4887111;29;20052;-80
2023/09/24 07:46:12;;;;;;;975.00;860.55;;;12.50;99.90;;;;;;4889893;29;20055;-80
2023/09/24 07:48:39;;;;;;;984.75;856.25;;;12.60;99.90;;;;;;4867422;29;20462;-80
2023/09/24 07:51:04;;;;;;;987.30;868.80;;;12.70;99.90;;;;;;4885712;29;20415;-80
2023/09/24 07:53:30;;;;;;;994.20;860.85;;;12.70;99.90;;;;;;4874641;29;20041;-80
2023/09/24 07:55:58;;;;;;;951.42;847.25;;;12.90;99.90;;;;;;4884678;29;20120;-80
2023/09/24 07:58:24;;;;;;;902.40;809.60;;;12.90;99.90;;;;;;4869418;29;20516;-80
2023/09/24 08:00:51;;;;;;;930.10;823.05;;;13.00;99.90;;;;;;4870337;29;20048;-80
2023/09/24 08:03:17;;;;;;;1040.97;855.42;;;13.10;99.90;;;;;;4888135;29;20199;-80
2023/09/24 08:05:42;;;;;;;1096.25;854.13;;;13.10;99.90;;;;;;4871767;29;20140;-80
2023/09/24 08:08:08;;;;;;;1055.85;850.00;;;13.10;99.90;;;;;;4889507;29;20489;-80
2023/09/24 08:10:34;;;;;;;1095.00;856.72;;;13.20;99.90;;;;;;4888796;29;20112;-81
2023/09/24 08:13:02;;;;;;;1055.10;843.70;;;13.20;99.90;;;;;;4874539;29;20469;-80
2023/09/24 08:15:28;;;;;;;1107.38;852.58;;;13.30;99.90;;;;;;4872069;29;20048;-81
2023/09/24 08:17:54;;;;;;;1107.25;848.78;;;13.30;99.90;;;;;;4879509;29;20045;-80
2023/09/24 08:20:20;;;;;;;1083.55;859.10;;;13.40;99.90;;;;;;4884292;29;20108;-81
2023/09/24 08:22:45;;;;;;;1101.80;851.50;;;13.50;99.90;;;;;;4890575;29;20057;-81
2023/09/24 08:25:11;;;;;;;1069.97;838.25;;;13.50;99.90;;;;;;4891934;29;20422;-81
2023/09/24 08:27:37;;;;;;;1046.07;856.78;;;13.60;99.90;;;;;;4891523;29;20063;-81
2023/09/24 08:30:03;;;;;;;1118.43;863.00;;;13.70;99.90;;;;;;4889088;29;20044;-81
2023/09/24 08:32:29;;;;;;;1073.13;873.55;;;13.70;99.90;;;;;;4890169;29;20048;-81
2023/09/24 08:34:55;;;;;;;1085.18;879.83;;;13.80;99.90;;;;;;4873934;29;20067;-81
2023/09/24 08:37:20;;;;;;;1060.72;864.63;;;13.80;99.90;;;;;;4887253;29;20088;-81
2023/09/24 08:39:46;;;;;;;1052.20;867.17;;;13.90;99.90;;;;;;4890929;29;20049;-81
2023/09/24 08:42:14;;;;;;;1006.35;847.10;;;13.90;99.90;;;;;;4890170;29;20484;-81
2023/09/24 08:44:40;;;;;;;1057.35;865.50;;;14.00;99.90;;;;;;4861558;29;20055;-81
2023/09/24 08:47:06;;;;;;;1067.82;876.97;;;14.00;99.90;;;;;;4860218;29;20508;-82
2023/09/24 08:49:32;;;;;;;1044.97;839.08;;;14.10;99.90;;;;;;4889794;29;20053;-81
2023/09/24 08:52:00;;;;;;;1076.93;879.40;;;14.10;99.90;;;;;;4889168;29;20068;-81
2023/09/24 08:54:27;;;;;;;1113.05;878.83;;;14.20;99.90;;;;;;4886318;29;20591;-82
2023/09/24 08:56:53;;;;;;;941.42;804.45;;;14.30;99.90;;;;;;4889377;29;20060;-81
2023/09/24 08:59:19;;;;;;;888.90;794.30;;;14.40;99.90;;;;;;4884560;29;20382;-82
2023/09/24 09:01:54;;;;;;;946.60;811.38;;;14.50;99.90;;;;;;4888924;29;20060;-82
2023/09/24 09:04:20;;;;;;;955.70;825.53;;;14.60;99.90;;;;;;4880791;29;20053;-82
2023/09/24 09:06:46;;;;;;;769.72;689.22;;;14.60;99.90;;;;;;4888890;29;20591;-82
2023/09/24 09:09:26;;;;;;;776.47;695.92;;;14.70;99.90;;;;;;4874448;29;20093;-82
2023/09/24 09:11:52;;;;;;;855.22;762.97;;;14.80;99.90;;;;;;4886280;29;20537;-82
2023/09/24 09:14:34;;;;;;;766.22;688.17;;;14.80;99.90;;;;;;4883835;29;20123;-82
2023/09/24 09:16:59;;;;;;;762.53;687.80;;;14.90;99.90;;;;;;4870826;29;20498;-82
2023/09/24 09:19:26;;;;;;;725.30;656.40;;;15.00;99.90;;;;;;4880359;29;20051;-82
2023/09/24 09:21:52;;;;;;;713.65;642.85;;;15.10;99.90;;;;;;4888869;29;20732;-83
2023/09/24 09:24:25;;;;;;;694.58;628.30;;;15.10;99.90;;;;;;4873880;29;20052;-82
2023/09/24 09:26:57;;;;;;;727.00;658.08;;;15.20;99.90;;;;;;4888764;29;20139;-82
2023/09/24 09:29:27;;;;;;;694.05;627.97;;;15.30;99.90;;;;;;4892145;29;20049;-82
2023/09/24 09:31:54;;;;;;;667.55;606.17;;;15.30;99.90;;;;;;4877256;29;20063;-83
2023/09/24 09:34:21;;;;;;;691.03;627.72;;;15.40;99.90;;;;;;4875633;29;20063;-83
2023/09/24 09:36:47;;;;;;;685.47;622.92;;;15.40;99.90;;;;;;4863123;29;20549;-83
2023/09/24 09:39:12;;;;;;;687.15;623.70;;;15.50;99.90;;;;;;4879809;29;20520;-83
2023/09/24 09:41:42;;;;;;;696.13;629.00;;;15.60;99.90;;;;;;4875783;29;20072;-82
2023/09/24 09:44:08;;;;;;;690.00;625.55;;;15.60;99.90;;;;;;4873765;29;20058;-83
2023/09/24 09:46:37;;;;;;;588.22;529.85;;;15.70;99.90;;;;;;4875818;29;20421;-83
2023/09/24 09:49:07;;;;;;;645.80;586.53;;;15.80;99.90;;;;;;4893426;29;20064;-82
2023/09/24 09:51:48;;;;;;;733.88;665.28;;;15.80;99.90;;;;;;4895494;29;20048;-82
2023/09/24 09:54:15;;;;;;;666.08;604.45;;;15.90;99.90;;;;;;4865250;29;20066;-82
2023/09/24 09:56:41;;;;;;;692.88;624.35;;;15.90;99.90;;;;;;4885221;29;20108;-83
2023/09/24 09:59:08;;;;;;;543.78;494.33;;;16.00;99.90;;;;;;4869090;29;20159;-83
2023/09/24 10:01:34;;;;;;;599.33;542.60;;;16.00;99.90;;;;;;4871262;29;20527;-82
2023/09/24 10:04:03;;;;;;;564.05;511.40;;;16.00;99.90;;;;;;4875921;29;20427;-83
2023/09/24 10:06:33;;;;;;;543.97;492.95;;;16.10;99.90;;;;;;4901486;29;20045;-82
2023/09/24 10:08:59;;;;;;;519.53;471.02;;;16.10;99.90;;;;;;4868762;29;20044;-83
2023/09/24 10:11:30;;;;;;;578.58;524.58;;;16.20;99.90;;;;;;4876442;29;20456;-82
2023/09/24 10:13:57;;;;;;;655.92;590.40;;;16.30;99.90;;;;;;4868380;29;20435;-82
2023/09/24 10:16:30;;;;;;;672.20;603.47;;;16.40;99.90;;;;;;4884620;29;20445;-82
2023/09/24 10:19:07;;;;;;;625.33;561.15;;;16.40;99.90;;;;;;4876367;29;20111;-83
2023/09/24 10:21:39;;;;;;;727.40;638.13;;;16.50;99.90;;;;;;4879869;29;20063;-83
2023/09/24 10:24:13;;;;;;;718.05;638.58;;;16.50;99.90;;;;;;4906326;29;20048;-82
2023/09/24 10:27:04;;;;;;;717.97;629.75;;;16.60;99.90;;;;;;4875587;29;20048;-82
2023/09/24 10:29:50;;;;;;;840.60;688.75;;;16.60;99.90;;;;;;4889047;29;20045;-83
2023/09/24 10:32:17;;;;;;;744.55;638.78;;;16.70;99.90;;;;;;4876138;29;20052;-82
2023/09/24 10:34:54;;;;;;;683.80;584.40;;;16.70;99.90;;;;;;4875119;29;20403;-83
2023/09/24 10:37:23;;;;;;;617.92;550.42;;;16.70;99.90;;;;;;4874606;29;20110;-82
2023/09/24 10:40:13;;;;;;;676.25;595.08;;;16.80;99.90;;;;;;4875379;29;20420;-84
2023/09/24 10:42:42;;;;;;;765.47;670.00;;;16.80;99.90;;;;;;4876625;29;20397;-83
2023/09/24 10:45:07;;;;;;;827.63;738.10;;;16.90;99.90;;;;;;4874298;29;20059;-83
2023/09/24 10:47:40;;;;;;;708.03;622.10;;;16.90;99.90;;;;;;4874766;29;20132;-83
2023/09/24 10:50:14;;;;;;;682.40;607.28;;;17.00;99.90;;;;;;4893627;29;20049;-84
2023/09/24 10:52:53;;;;;;;723.28;597.90;;;17.10;99.90;;;;;;4887588;29;20104;-84
2023/09/24 10:55:20;;;;;;;836.28;746.05;;;17.10;99.90;;;;;;4891792;29;20076;-83
2023/09/24 10:57:47;;;;;;;845.05;728.65;;;17.10;99.90;;;;;;4870290;29;20052;-84
2023/09/24 11:00:20;;;;;;;625.03;555.88;;;17.10;99.90;;;;;;4864557;29;20148;-84
2023/09/24 11:03:00;;;;;;;693.42;600.17;;;17.20;99.90;;;;;;4875223;29;20171;-83
2023/09/24 11:05:29;;;;;;;888.85;793.78;;;17.30;99.90;;;;;;4872006;29;20390;-83
2023/09/24 11:07:55;;;;;;;838.05;749.15;;;17.30;99.90;;;;;;4888916;29;20080;-83
2023/09/24 11:10:25;;;;;;;694.05;617.63;;;17.30;99.90;;;;;;4890621;29;20341;-83
2023/09/24 11:12:53;;;;;;;740.67;660.42;;;17.30;99.90;;;;;;4874987;29;20092;-85
2023/09/24 11:15:22;;;;;;;783.45;699.47;;;17.30;99.90;;;;;;4875471;29;20048;-84
2023/09/24 11:17:50;;;;;;;867.30;775.42;;;17.40;99.90;;;;;;4890679;29;20048;-84
2023/09/24 11:20:22;;;;;;;722.35;646.63;;;17.40;99.90;;;;;;4865696;29;20049;-82
2023/09/24 11:23:11;;;;;;;877.50;788.08;;;17.40;99.90;;;;;;4865280;29;20521;-83
2023/09/24 11:25:46;;;;;;;798.70;715.03;;;17.40;99.90;;;;;;4887467;29;20072;-84
2023/09/24 11:28:12;;;;;;;763.13;682.45;;;17.40;99.90;;;;;;4873047;29;20068;-83
2023/09/24 11:30:40;;;;;;;765.33;683.42;;;17.50;99.90;;;;;;4874859;29;20437;-83
2023/09/24 11:33:16;;;;;;;750.33;651.30;;;17.50;99.90;;;;;;4889562;29;20148;-83
2023/09/24 11:35:43;;;;;;;819.38;729.55;;;17.60;99.90;;;;;;4875308;29;20058;-83
2023/09/24 11:38:09;;;;;;;645.42;568.30;;;17.60;99.90;;;;;;4872833;29;20136;-82
2023/09/24 11:40:37;;;;;;;775.17;693.35;;;17.70;99.90;;;;;;4864951;29;20477;-83
2023/09/24 11:43:12;;;;;;;876.95;784.30;;;17.60;99.90;;;;;;4875155;29;20140;-83
2023/09/24 11:45:46;;;;;;;761.53;674.75;;;17.60;99.90;;;;;;4874764;29;20055;-82
2023/09/24 11:48:27;;;;;;;881.13;789.97;;;17.60;99.90;;;;;;4885161;29;20045;-83
2023/09/24 11:50:54;;;;;;;839.17;751.58;;;17.60;99.90;;;;;;4889527;29;20068;-83
2023/09/24 11:53:22;;;;;;;870.33;778.10;;;17.60;99.90;;;;;;4890190;29;20507;-83
2023/09/24 11:55:48;;;;;;;868.17;776.50;;;17.70;99.90;;;;;;4875054;29;20055;-83
2023/09/24 11:58:17;;;;;;;878.78;787.33;;;17.70;99.90;;;;;;4875355;29;20052;-83
2023/09/24 12:00:43;;;;;;;841.17;751.60;;;17.70;99.90;;;;;;4873162;29;20449;-82
2023/09/24 12:03:09;;;;;;;774.00;691.47;;;17.70;99.90;;;;;;4890920;29;20053;-82
2023/09/24 12:05:35;;;;;;;866.35;775.60;;;17.70;99.90;;;;;;4889952;29;20050;-82
2023/09/24 12:08:05;;;;;;;804.38;720.22;;;17.70;99.90;;;;;;4890279;29;20151;-83